Terminal Aerodrome Forecast
Issued by NWS Caribou, ME

Home | Current Version | Previous Version | Text Only | Print | Product List | Glossary On
Versions: 1 2 3 4 5 6 7 8 9 10 11 12 13 14 15 16 17
000
FTUS41 KCAR 041734
TAFCAR
TAF
KCAR 041734Z 0418/0518 21008KT P6SM FEW050 BKN250
     FM050100 18004KT P6SM SCT250
     FM051400 28004KT P6SM BKN060=

USA.gov is the U.S. government's official web portal to all federal, state and local government web resources and services.